sensor_id;sensor_type;location;lat;lon;timestamp;pressure;altitude;pressure_sealevel;temperature;humidity
74881;BME280;63427;49.654;6.596;2023-02-04T00:01:04;101217.61;;;12.31;42.07
74881;BME280;63427;49.654;6.596;2023-02-04T00:03:28;101223.45;;;12.14;42.41
74881;BME280;63427;49.654;6.596;2023-02-04T00:05:54;101225.75;;;12.33;42.03
74881;BME280;63427;49.654;6.596;2023-02-04T00:08:20;101222.18;;;12.27;42.12
74881;BME280;63427;49.654;6.596;2023-02-04T00:10:45;101221.82;;;12.50;42.25
74881;BME280;63427;49.654;6.596;2023-02-04T00:13:10;101218.38;;;12.36;42.15
74881;BME280;63427;49.654;6.596;2023-02-04T00:15:36;101216.05;;;12.59;41.78
74881;BME280;63427;49.654;6.596;2023-02-04T00:18:02;101207.79;;;12.45;42.00
74881;BME280;63427;49.654;6.596;2023-02-04T00:20:27;101214.19;;;12.37;42.31
74881;BME280;63427;49.654;6.596;2023-02-04T00:22:53;101216.63;;;12.22;42.18
74881;BME280;63427;49.654;6.596;2023-02-04T00:25:18;101214.55;;;12.26;42.30
74881;BME280;63427;49.654;6.596;2023-02-04T00:27:43;101216.45;;;12.34;42.38
74881;BME280;63427;49.654;6.596;2023-02-04T00:30:10;101216.85;;;12.49;42.19
74881;BME280;63427;49.654;6.596;2023-02-04T00:32:34;101212.77;;;12.79;42.07
74881;BME280;63427;49.654;6.596;2023-02-04T00:35:00;101215.99;;;12.50;42.10
74881;BME280;63427;49.654;6.596;2023-02-04T00:37:25;101215.38;;;12.47;42.28
74881;BME280;63427;49.654;6.596;2023-02-04T00:39:51;101210.03;;;12.41;42.53
74881;BME280;63427;49.654;6.596;2023-02-04T00:42:17;101206.46;;;12.50;42.28
74881;BME280;63427;49.654;6.596;2023-02-04T00:44:42;101201.71;;;12.53;42.25
74881;BME280;63427;49.654;6.596;2023-02-04T00:47:07;101203.97;;;12.48;42.44
74881;BME280;63427;49.654;6.596;2023-02-04T00:49:33;101203.74;;;12.54;42.30
74881;BME280;63427;49.654;6.596;2023-02-04T00:51:58;101205.06;;;12.51;42.48
74881;BME280;63427;49.654;6.596;2023-02-04T00:54:24;101206.80;;;12.30;42.67
74881;BME280;63427;49.654;6.596;2023-02-04T00:56:49;101201.07;;;12.35;42.69
74881;BME280;63427;49.654;6.596;2023-02-04T00:59:15;101205.67;;;12.17;43.09
74881;BME280;63427;49.654;6.596;2023-02-04T01:01:43;101203.12;;;12.16;43.08
74881;BME280;63427;49.654;6.596;2023-02-04T01:04:06;101201.63;;;12.11;43.26
74881;BME280;63427;49.654;6.596;2023-02-04T01:06:33;101198.22;;;12.21;43.12
74881;BME280;63427;49.654;6.596;2023-02-04T01:08:57;101199.91;;;12.18;43.14
74881;BME280;63427;49.654;6.596;2023-02-04T01:11:23;101210.07;;;12.09;43.42
74881;BME280;63427;49.654;6.596;2023-02-04T01:13:48;101213.45;;;12.13;43.70
74881;BME280;63427;49.654;6.596;2023-02-04T01:16:14;101213.11;;;12.45;43.51
74881;BME280;63427;49.654;6.596;2023-02-04T01:18:39;101212.38;;;12.57;43.32
74881;BME280;63427;49.654;6.596;2023-02-04T01:21:05;101215.97;;;12.07;43.34
74881;BME280;63427;49.654;6.596;2023-02-04T01:23:30;101216.95;;;12.32;42.91
74881;BME280;63427;49.654;6.596;2023-02-04T01:25:56;101214.62;;;12.42;42.81
74881;BME280;63427;49.654;6.596;2023-02-04T01:28:21;101218.28;;;12.52;42.54
74881;BME280;63427;49.654;6.596;2023-02-04T01:30:47;101220.04;;;12.47;42.57
74881;BME280;63427;49.654;6.596;2023-02-04T01:33:12;101221.91;;;12.47;42.66
74881;BME280;63427;49.654;6.596;2023-02-04T01:35:38;101219.46;;;12.42;42.77
74881;BME280;63427;49.654;6.596;2023-02-04T01:38:04;101218.85;;;12.37;42.81
74881;BME280;63427;49.654;6.596;2023-02-04T01:40:29;101224.91;;;12.37;42.85
74881;BME280;63427;49.654;6.596;2023-02-04T01:42:54;101231.63;;;12.40;42.72
74881;BME280;63427;49.654;6.596;2023-02-04T01:45:20;101232.17;;;12.07;43.14
74881;BME280;63427;49.654;6.596;2023-02-04T01:47:46;101234.57;;;12.29;42.94
74881;BME280;63427;49.654;6.596;2023-02-04T01:50:13;101237.23;;;12.26;42.94
74881;BME280;63427;49.654;6.596;2023-02-04T01:52:38;101239.19;;;12.39;42.80
74881;BME280;63427;49.654;6.596;2023-02-04T01:55:02;101237.93;;;12.42;42.65
74881;BME280;63427;49.654;6.596;2023-02-04T01:57:27;101237.77;;;12.27;42.84
74881;BME280;63427;49.654;6.596;2023-02-04T01:59:54;101236.46;;;12.32;42.79
74881;BME280;63427;49.654;6.596;2023-02-04T02:02:37;101235.30;;;12.29;42.79
74881;BME280;63427;49.654;6.596;2023-02-04T02:04:44;101239.06;;;12.29;42.85
74881;BME280;63427;49.654;6.596;2023-02-04T02:07:09;101234.16;;;12.49;42.86
74881;BME280;63427;49.654;6.596;2023-02-04T02:09:35;101236.05;;;12.48;42.52
74881;BME280;63427;49.654;6.596;2023-02-04T02:12:02;101232.59;;;12.62;42.60
74881;BME280;63427;49.654;6.596;2023-02-04T02:14:26;101233.71;;;12.37;42.65
74881;BME280;63427;49.654;6.596;2023-02-04T02:16:51;101234.99;;;12.30;42.72
74881;BME280;63427;49.654;6.596;2023-02-04T02:19:21;101236.87;;;12.34;42.64
74881;BME280;63427;49.654;6.596;2023-02-04T02:21:48;101233.99;;;12.35;42.55
74881;BME280;63427;49.654;6.596;2023-02-04T02:26:33;101235.20;;;12.16;42.91
74881;BME280;63427;49.654;6.596;2023-02-04T02:28:59;101229.84;;;12.70;42.81
74881;BME280;63427;49.654;6.596;2023-02-04T02:31:24;101232.56;;;12.38;42.57
74881;BME280;63427;49.654;6.596;2023-02-04T02:33:50;101234.48;;;12.41;42.49
74881;BME280;63427;49.654;6.596;2023-02-04T02:36:15;101233.85;;;12.61;42.51
74881;BME280;63427;49.654;6.596;2023-02-04T02:38:40;101233.84;;;12.22;42.75
74881;BME280;63427;49.654;6.596;2023-02-04T02:41:06;101231.35;;;12.16;43.24
74881;BME280;63427;49.654;6.596;2023-02-04T02:43:31;101231.77;;;12.26;43.15
74881;BME280;63427;49.654;6.596;2023-02-04T02:45:58;101230.42;;;12.16;42.88
74881;BME280;63427;49.654;6.596;2023-02-04T02:48:22;101229.32;;;12.18;42.89
74881;BME280;63427;49.654;6.596;2023-02-04T02:50:48;101226.50;;;12.11;42.97
74881;BME280;63427;49.654;6.596;2023-02-04T02:53:15;101227.54;;;12.15;42.93
74881;BME280;63427;49.654;6.596;2023-02-04T02:55:39;101225.52;;;12.44;42.87
74881;BME280;63427;49.654;6.596;2023-02-04T02:58:11;101227.37;;;12.24;42.77
74881;BME280;63427;49.654;6.596;2023-02-04T03:00:30;101230.48;;;12.24;42.80
74881;BME280;63427;49.654;6.596;2023-02-04T03:02:58;101229.93;;;12.48;42.86
74881;BME280;63427;49.654;6.596;2023-02-04T03:05:21;101227.33;;;12.17;42.87
74881;BME280;63427;49.654;6.596;2023-02-04T03:07:47;101231.33;;;12.12;42.93
74881;BME280;63427;49.654;6.596;2023-02-04T03:10:12;101229.59;;;12.32;42.64
74881;BME280;63427;49.654;6.596;2023-02-04T03:12:37;101235.66;;;12.25;42.71
74881;BME280;63427;49.654;6.596;2023-02-04T03:15:04;101240.85;;;12.45;42.40
74881;BME280;63427;49.654;6.596;2023-02-04T03:17:29;101249.79;;;12.38;42.60
74881;BME280;63427;49.654;6.596;2023-02-04T03:19:54;101256.81;;;12.36;42.74
74881;BME280;63427;49.654;6.596;2023-02-04T03:22:19;101267.69;;;12.08;43.29
74881;BME280;63427;49.654;6.596;2023-02-04T03:24:45;101274.85;;;11.69;43.90
74881;BME280;63427;49.654;6.596;2023-02-04T03:27:11;101282.17;;;11.92;44.86
74881;BME280;63427;49.654;6.596;2023-02-04T03:29:42;101282.03;;;11.69;44.64
74881;BME280;63427;49.654;6.596;2023-02-04T03:32:02;101282.71;;;11.65;44.63
74881;BME280;63427;49.654;6.596;2023-02-04T03:34:27;101285.11;;;12.02;44.14
74881;BME280;63427;49.654;6.596;2023-02-04T03:36:53;101291.45;;;11.88;44.36
74881;BME280;63427;49.654;6.596;2023-02-04T03:39:18;101294.45;;;11.81;44.21
74881;BME280;63427;49.654;6.596;2023-02-04T03:41:44;101295.62;;;11.81;44.26
74881;BME280;63427;49.654;6.596;2023-02-04T03:44:09;101297.45;;;11.71;44.04
74881;BME280;63427;49.654;6.596;2023-02-04T03:46:35;101304.33;;;11.67;43.84
74881;BME280;63427;49.654;6.596;2023-02-04T03:49:00;101303.27;;;11.96;43.63
74881;BME280;63427;49.654;6.596;2023-02-04T03:51:26;101301.40;;;11.92;43.43
74881;BME280;63427;49.654;6.596;2023-02-04T03:53:51;101303.97;;;12.22;43.20
74881;BME280;63427;49.654;6.596;2023-02-04T03:56:17;101305.71;;;11.96;43.28
74881;BME280;63427;49.654;6.596;2023-02-04T03:58:43;101307.11;;;11.68;43.36
74881;BME280;63427;49.654;6.596;2023-02-04T04:01:08;101310.61;;;11.97;43.43
74881;BME280;63427;49.654;6.596;2023-02-04T04:03:34;101317.15;;;11.82;43.26
74881;BME280;63427;49.654;6.596;2023-02-04T04:05:59;101317.27;;;11.92;43.04
74881;BME280;63427;49.654;6.596;2023-02-04T04:08:25;101316.08;;;11.79;43.14
74881;BME280;63427;49.654;6.596;2023-02-04T04:10:50;101313.28;;;11.93;43.02
74881;BME280;63427;49.654;6.596;2023-02-04T04:13:16;101315.22;;;12.01;42.85
74881;BME280;63427;49.654;6.596;2023-02-04T04:15:41;101319.91;;;12.05;42.75
74881;BME280;63427;49.654;6.596;2023-02-04T04:18:07;101319.45;;;12.11;42.62
74881;BME280;63427;49.654;6.596;2023-02-04T04:20:32;101320.34;;;12.23;42.82
74881;BME280;63427;49.654;6.596;2023-02-04T04:22:58;101323.66;;;12.02;42.77
74881;BME280;63427;49.654;6.596;2023-02-04T04:25:24;101327.53;;;12.21;42.73
74881;BME280;63427;49.654;6.596;2023-02-04T04:27:49;101326.15;;;11.76;42.52
74881;BME280;63427;49.654;6.596;2023-02-04T04:30:15;101328.56;;;11.78;42.92
74881;BME280;63427;49.654;6.596;2023-02-04T04:32:40;101332.10;;;11.84;42.78
74881;BME280;63427;49.654;6.596;2023-02-04T04:35:06;101333.08;;;12.12;42.87
74881;BME280;63427;49.654;6.596;2023-02-04T04:37:31;101333.25;;;11.82;42.73
74881;BME280;63427;49.654;6.596;2023-02-04T04:39:57;101337.97;;;11.71;42.82
74881;BME280;63427;49.654;6.596;2023-02-04T04:42:22;101338.70;;;11.14;44.10
74881;BME280;63427;49.654;6.596;2023-02-04T04:44:48;101340.64;;;11.19;43.41
74881;BME280;63427;49.654;6.596;2023-02-04T04:47:13;101344.19;;;11.67;43.18
74881;BME280;63427;49.654;6.596;2023-02-04T04:49:39;101352.02;;;10.88;43.20
74881;BME280;63427;49.654;6.596;2023-02-04T04:52:05;101353.26;;;11.21;43.27
74881;BME280;63427;49.654;6.596;2023-02-04T04:54:30;101346.12;;;11.17;43.64
74881;BME280;63427;49.654;6.596;2023-02-04T04:56:56;101348.34;;;10.81;43.69
74881;BME280;63427;49.654;6.596;2023-02-04T04:59:21;101347.25;;;10.19;44.20
74881;BME280;63427;49.654;6.596;2023-02-04T05:01:47;101352.48;;;10.48;43.74
74881;BME280;63427;49.654;6.596;2023-02-04T05:04:12;101357.71;;;9.89;45.33
74881;BME280;63427;49.654;6.596;2023-02-04T05:06:38;101358.31;;;9.84;46.25
74881;BME280;63427;49.654;6.596;2023-02-04T05:09:04;101355.84;;;10.19;44.73
74881;BME280;63427;49.654;6.596;2023-02-04T05:11:29;101350.21;;;9.95;44.22
74881;BME280;63427;49.654;6.596;2023-02-04T05:13:55;101349.47;;;10.82;43.21
74881;BME280;63427;49.654;6.596;2023-02-04T05:16:21;101352.95;;;10.46;42.89
74881;BME280;63427;49.654;6.596;2023-02-04T05:18:46;101350.69;;;10.40;42.84
74881;BME280;63427;49.654;6.596;2023-02-04T05:21:11;101366.43;;;10.70;42.68
74881;BME280;63427;49.654;6.596;2023-02-04T05:23:37;101367.40;;;10.84;42.29
74881;BME280;63427;49.654;6.596;2023-02-04T05:26:03;101373.12;;;10.29;42.68
74881;BME280;63427;49.654;6.596;2023-02-04T05:28:28;101375.05;;;10.16;43.05
74881;BME280;63427;49.654;6.596;2023-02-04T05:30:54;101377.68;;;10.26;42.77
74881;BME280;63427;49.654;6.596;2023-02-04T05:33:19;101379.30;;;10.53;42.61
74881;BME280;63427;49.654;6.596;2023-02-04T05:35:45;101376.80;;;10.64;42.17
74881;BME280;63427;49.654;6.596;2023-02-04T05:38:11;101377.11;;;10.35;42.01
74881;BME280;63427;49.654;6.596;2023-02-04T05:40:36;101379.50;;;10.70;41.60
74881;BME280;63427;49.654;6.596;2023-02-04T05:43:01;101381.43;;;10.52;41.61
74881;BME280;63427;49.654;6.596;2023-02-04T05:45:27;101380.31;;;10.81;41.67
74881;BME280;63427;49.654;6.596;2023-02-04T05:47:52;101383.30;;;10.65;41.40
74881;BME280;63427;49.654;6.596;2023-02-04T05:50:18;101393.37;;;10.92;41.35
74881;BME280;63427;49.654;6.596;2023-02-04T05:52:44;101401.27;;;10.73;41.35
74881;BME280;63427;49.654;6.596;2023-02-04T05:55:11;101400.28;;;10.66;41.34
74881;BME280;63427;49.654;6.596;2023-02-04T05:57:35;101404.68;;;10.57;41.02
74881;BME280;63427;49.654;6.596;2023-02-04T06:00:01;101406.98;;;10.77;41.32
74881;BME280;63427;49.654;6.596;2023-02-04T06:02:26;101406.62;;;10.50;41.37
74881;BME280;63427;49.654;6.596;2023-02-04T06:04:52;101413.00;;;10.82;41.07
74881;BME280;63427;49.654;6.596;2023-02-04T06:07:17;101413.98;;;10.58;40.91
74881;BME280;63427;49.654;6.596;2023-02-04T06:09:43;101410.40;;;10.36;41.28
74881;BME280;63427;49.654;6.596;2023-02-04T06:12:08;101411.61;;;10.60;41.14
74881;BME280;63427;49.654;6.596;2023-02-04T06:14:34;101413.23;;;10.77;40.91
74881;BME280;63427;49.654;6.596;2023-02-04T06:17:00;101414.46;;;10.37;41.29
74881;BME280;63427;49.654;6.596;2023-02-04T06:19:25;101417.70;;;10.42;40.95
74881;BME280;63427;49.654;6.596;2023-02-04T06:21:50;101420.72;;;10.46;41.11
74881;BME280;63427;49.654;6.596;2023-02-04T06:24:16;101420.34;;;10.39;41.10
74881;BME280;63427;49.654;6.596;2023-02-04T06:26:41;101422.38;;;10.78;40.62
74881;BME280;63427;49.654;6.596;2023-02-04T06:29:07;101422.21;;;10.57;40.76
74881;BME280;63427;49.654;6.596;2023-02-04T06:31:32;101421.76;;;10.59;40.80
74881;BME280;63427;49.654;6.596;2023-02-04T06:33:58;101430.08;;;10.41;40.47
74881;BME280;63427;49.654;6.596;2023-02-04T06:36:24;101429.60;;;10.57;40.27
74881;BME280;63427;49.654;6.596;2023-02-04T06:38:49;101430.48;;;10.46;40.53
74881;BME280;63427;49.654;6.596;2023-02-04T06:41:15;101434.22;;;10.55;40.41
74881;BME280;63427;49.654;6.596;2023-02-04T06:43:40;101442.03;;;10.57;40.36
74881;BME280;63427;49.654;6.596;2023-02-04T06:46:06;101444.08;;;10.32;40.37
74881;BME280;63427;49.654;6.596;2023-02-04T06:48:32;101442.38;;;10.34;40.11
74881;BME280;63427;49.654;6.596;2023-02-04T06:50:57;101439.02;;;10.48;40.27
74881;BME280;63427;49.654;6.596;2023-02-04T06:53:23;101440.02;;;10.36;40.21
74881;BME280;63427;49.654;6.596;2023-02-04T06:55:49;101437.69;;;10.61;40.09
74881;BME280;63427;49.654;6.596;2023-02-04T06:58:14;101441.21;;;10.58;39.63
74881;BME280;63427;49.654;6.596;2023-02-04T07:00:40;101451.48;;;10.49;39.88
74881;BME280;63427;49.654;6.596;2023-02-04T07:03:05;101456.58;;;10.37;40.02
74881;BME280;63427;49.654;6.596;2023-02-04T07:05:31;101466.63;;;10.26;40.19
74881;BME280;63427;49.654;6.596;2023-02-04T07:07:57;101467.83;;;10.28;40.41
74881;BME280;63427;49.654;6.596;2023-02-04T07:10:22;101469.41;;;10.14;40.59
74881;BME280;63427;49.654;6.596;2023-02-04T07:12:48;101473.44;;;10.18;40.46
74881;BME280;63427;49.654;6.596;2023-02-04T07:15:14;101483.78;;;10.14;40.64
74881;BME280;63427;49.654;6.596;2023-02-04T07:17:40;101486.68;;;10.55;40.74
74881;BME280;63427;49.654;6.596;2023-02-04T07:20:06;101492.47;;;9.99;40.79
74881;BME280;63427;49.654;6.596;2023-02-04T07:22:30;101497.26;;;9.99;40.86
74881;BME280;63427;49.654;6.596;2023-02-04T07:24:56;101498.23;;;9.92;40.91
74881;BME280;63427;49.654;6.596;2023-02-04T07:27:22;101496.30;;;10.07;41.04
74881;BME280;63427;49.654;6.596;2023-02-04T07:29:48;101497.03;;;10.10;40.97
74881;BME280;63427;49.654;6.596;2023-02-04T07:32:13;101498.82;;;10.50;41.05
74881;BME280;63427;49.654;6.596;2023-02-04T07:34:39;101503.05;;;10.06;40.89
74881;BME280;63427;49.654;6.596;2023-02-04T07:37:04;101508.86;;;9.94;40.97
74881;BME280;63427;49.654;6.596;2023-02-04T07:39:30;101513.62;;;9.84;41.08
74881;BME280;63427;49.654;6.596;2023-02-04T07:41:56;101511.93;;;10.36;40.94
74881;BME280;63427;49.654;6.596;2023-02-04T07:44:21;101509.84;;;9.90;40.83
74881;BME280;63427;49.654;6.596;2023-02-04T07:46:47;101520.13;;;9.88;40.57
74881;BME280;63427;49.654;6.596;2023-02-04T07:49:12;101521.93;;;9.77;40.62
74881;BME280;63427;49.654;6.596;2023-02-04T07:51:38;101526.06;;;10.00;40.71
74881;BME280;63427;49.654;6.596;2023-02-04T07:54:04;101531.46;;;9.77;40.48
74881;BME280;63427;49.654;6.596;2023-02-04T07:56:30;101536.40;;;9.77;40.48
74881;BME280;63427;49.654;6.596;2023-02-04T07:58:55;101542.50;;;9.70;40.74
74881;BME280;63427;49.654;6.596;2023-02-04T08:01:21;101543.23;;;9.65;40.98
74881;BME280;63427;49.654;6.596;2023-02-04T08:03:47;101540.58;;;10.00;41.19
74881;BME280;63427;49.654;6.596;2023-02-04T08:06:12;101539.53;;;9.80;41.28
74881;BME280;63427;49.654;6.596;2023-02-04T08:08:38;101539.22;;;9.78;41.21
74881;BME280;63427;49.654;6.596;2023-02-04T08:11:04;101541.16;;;9.51;41.37
74881;BME280;63427;49.654;6.596;2023-02-04T08:13:29;101539.63;;;9.86;41.57
74881;BME280;63427;49.654;6.596;2023-02-04T08:15:55;101545.71;;;10.03;41.20
74881;BME280;63427;49.654;6.596;2023-02-04T08:18:20;101547.02;;;9.92;41.42
74881;BME280;63427;49.654;6.596;2023-02-04T08:20:46;101556.39;;;9.96;41.20
74881;BME280;63427;49.654;6.596;2023-02-04T08:23:12;101557.74;;;9.97;41.03
74881;BME280;63427;49.654;6.596;2023-02-04T08:25:37;101556.18;;;10.09;41.22
74881;BME280;63427;49.654;6.596;2023-02-04T08:28:03;101560.34;;;10.06;41.20
74881;BME280;63427;49.654;6.596;2023-02-04T08:30:28;101560.61;;;10.11;41.24
74881;BME280;63427;49.654;6.596;2023-02-04T08:32:54;101568.35;;;9.83;41.35
74881;BME280;63427;49.654;6.596;2023-02-04T08:35:20;101575.64;;;10.00;40.86
74881;BME280;63427;49.654;6.596;2023-02-04T08:37:45;101578.09;;;10.03;41.02
74881;BME280;63427;49.654;6.596;2023-02-04T08:40:12;101580.20;;;9.74;41.28
74881;BME280;63427;49.654;6.596;2023-02-04T08:42:36;101580.19;;;10.36;41.23
74881;BME280;63427;49.654;6.596;2023-02-04T08:45:03;101585.26;;;9.96;41.81
74881;BME280;63427;49.654;6.596;2023-02-04T08:47:28;101586.10;;;10.14;41.78
74881;BME280;63427;49.654;6.596;2023-02-04T08:49:53;101584.42;;;10.33;41.35
74881;BME280;63427;49.654;6.596;2023-02-04T08:52:18;101584.83;;;10.40;41.17
74881;BME280;63427;49.654;6.596;2023-02-04T08:54:44;101589.91;;;10.85;40.26
74881;BME280;63427;49.654;6.596;2023-02-04T08:57:09;101588.11;;;10.86;39.72
74881;BME280;63427;49.654;6.596;2023-02-04T08:59:35;101585.21;;;11.13;38.55
74881;BME280;63427;49.654;6.596;2023-02-04T09:02:00;101587.36;;;11.17;39.42
74881;BME280;63427;49.654;6.596;2023-02-04T09:04:25;101587.04;;;11.27;39.15
74881;BME280;63427;49.654;6.596;2023-02-04T09:06:51;101588.98;;;11.46;37.91
74881;BME280;63427;49.654;6.596;2023-02-04T09:09:17;101586.88;;;11.58;37.24
74881;BME280;63427;49.654;6.596;2023-02-04T09:11:43;101591.34;;;11.83;37.13
74881;BME280;63427;49.654;6.596;2023-02-04T09:14:08;101595.35;;;11.92;36.98
74881;BME280;63427;49.654;6.596;2023-02-04T09:16:34;101592.01;;;12.10;36.46
74881;BME280;63427;49.654;6.596;2023-02-04T09:18:59;101594.66;;;12.44;35.65
74881;BME280;63427;49.654;6.596;2023-02-04T09:21:25;101593.34;;;12.50;34.32
74881;BME280;63427;49.654;6.596;2023-02-04T09:23:50;101596.38;;;12.67;35.77
74881;BME280;63427;49.654;6.596;2023-02-04T09:26:15;101596.98;;;12.88;33.43
74881;BME280;63427;49.654;6.596;2023-02-04T09:28:41;101601.16;;;12.60;33.84
74881;BME280;63427;49.654;6.596;2023-02-04T09:31:06;101604.32;;;13.23;34.28
74881;BME280;63427;49.654;6.596;2023-02-04T09:33:32;101608.04;;;13.61;34.16
74881;BME280;63427;49.654;6.596;2023-02-04T09:35:58;101608.51;;;13.83;32.70
74881;BME280;63427;49.654;6.596;2023-02-04T09:38:23;101611.08;;;14.04;32.98
74881;BME280;63427;49.654;6.596;2023-02-04T09:40:52;101616.90;;;14.24;32.09
74881;BME280;63427;49.654;6.596;2023-02-04T09:43:17;101620.41;;;14.72;32.54
74881;BME280;63427;49.654;6.596;2023-02-04T09:45:39;101621.22;;;14.78;29.64
74881;BME280;63427;49.654;6.596;2023-02-04T09:48:05;101618.30;;;14.91;28.85
74881;BME280;63427;49.654;6.596;2023-02-04T09:50:31;101615.70;;;15.34;30.84
74881;BME280;63427;49.654;6.596;2023-02-04T09:52:57;101619.51;;;15.47;30.85
74881;BME280;63427;49.654;6.596;2023-02-04T09:55:24;101618.98;;;15.32;27.87
74881;BME280;63427;49.654;6.596;2023-02-04T09:57:46;101621.12;;;15.92;27.65
74881;BME280;63427;49.654;6.596;2023-02-04T10:00:17;101625.03;;;16.00;26.56
74881;BME280;63427;49.654;6.596;2023-02-04T10:02:36;101626.18;;;16.02;26.91
74881;BME280;63427;49.654;6.596;2023-02-04T10:05:02;101626.25;;;16.33;26.23
74881;BME280;63427;49.654;6.596;2023-02-04T10:07:27;101629.32;;;16.82;26.54
74881;BME280;63427;49.654;6.596;2023-02-04T10:09:54;101633.35;;;16.22;25.58
74881;BME280;63427;49.654;6.596;2023-02-04T10:12:19;101638.50;;;16.99;26.65
74881;BME280;63427;49.654;6.596;2023-02-04T10:14:44;101642.98;;;17.06;26.31
74881;BME280;63427;49.654;6.596;2023-02-04T10:17:10;101650.80;;;17.31;27.26
74881;BME280;63427;49.654;6.596;2023-02-04T10:19:35;101649.18;;;17.43;24.63
74881;BME280;63427;49.654;6.596;2023-02-04T10:22:00;101649.85;;;18.16;24.97
74881;BME280;63427;49.654;6.596;2023-02-04T10:24:26;101648.66;;;17.96;25.71
74881;BME280;63427;49.654;6.596;2023-02-04T10:26:51;101645.00;;;18.42;23.55
74881;BME280;63427;49.654;6.596;2023-02-04T10:29:19;101640.09;;;18.21;24.99
74881;BME280;63427;49.654;6.596;2023-02-04T10:31:43;101634.97;;;18.68;24.48
74881;BME280;63427;49.654;6.596;2023-02-04T10:34:12;101634.65;;;19.36;23.36
74881;BME280;63427;49.654;6.596;2023-02-04T10:36:32;101634.35;;;19.35;21.62
74881;BME280;63427;49.654;6.596;2023-02-04T10:38:59;101637.29;;;19.43;23.05
74881;BME280;63427;49.654;6.596;2023-02-04T10:41:22;101638.86;;;19.57;23.85
74881;BME280;63427;49.654;6.596;2023-02-04T10:43:54;101639.35;;;19.82;22.88
74881;BME280;63427;49.654;6.596;2023-02-04T10:46:18;101636.15;;;19.58;22.76
74881;BME280;63427;49.654;6.596;2023-02-04T10:48:41;101642.56;;;20.14;23.83
74881;BME280;63427;49.654;6.596;2023-02-04T10:51:03;101640.89;;;19.68;22.26
74881;BME280;63427;49.654;6.596;2023-02-04T10:53:28;101638.47;;;19.84;22.75
74881;BME280;63427;49.654;6.596;2023-02-04T10:55:54;101637.39;;;19.54;22.11
74881;BME280;63427;49.654;6.596;2023-02-04T10:58:23;101642.30;;;19.77;21.51
74881;BME280;63427;49.654;6.596;2023-02-04T11:00:44;101636.88;;;19.62;20.80
74881;BME280;63427;49.654;6.596;2023-02-04T11:03:14;101633.40;;;19.38;22.42
74881;BME280;63427;49.654;6.596;2023-02-04T11:05:35;101636.81;;;19.23;21.96
74881;BME280;63427;49.654;6.596;2023-02-04T11:08:00;101639.43;;;19.25;20.93
74881;BME280;63427;49.654;6.596;2023-02-04T11:10:28;101637.79;;;18.77;22.10
74881;BME280;63427;49.654;6.596;2023-02-04T11:12:59;101640.23;;;18.76;22.91
74881;BME280;63427;49.654;6.596;2023-02-04T11:17:40;101635.80;;;18.84;23.77
74881;BME280;63427;49.654;6.596;2023-02-04T11:20:15;101639.26;;;18.60;22.90
74881;BME280;63427;49.654;6.596;2023-02-04T11:22:41;101640.02;;;18.58;24.21
74881;BME280;63427;49.654;6.596;2023-02-04T11:24:56;101637.85;;;18.65;23.11
74881;BME280;63427;49.654;6.596;2023-02-04T11:27:24;101638.77;;;18.62;23.02
74881;BME280;63427;49.654;6.596;2023-02-04T11:29:48;101636.92;;;18.60;21.80
74881;BME280;63427;49.654;6.596;2023-02-04T11:32:27;101634.84;;;18.36;23.61
74881;BME280;63427;49.654;6.596;2023-02-04T11:34:46;101631.44;;;18.18;22.72
74881;BME280;63427;49.654;6.596;2023-02-04T11:39:33;101637.19;;;17.82;23.86
74881;BME280;63427;49.654;6.596;2023-02-04T11:41:54;101634.22;;;17.65;25.04
74881;BME280;63427;49.654;6.596;2023-02-04T11:44:19;101636.92;;;18.00;24.00
74881;BME280;63427;49.654;6.596;2023-02-04T11:46:49;101636.37;;;18.32;23.82
74881;BME280;63427;49.654;6.596;2023-02-04T11:49:15;101630.62;;;18.00;24.61
74881;BME280;63427;49.654;6.596;2023-02-04T11:51:35;101628.37;;;18.41;24.95
74881;BME280;63427;49.654;6.596;2023-02-04T11:54:00;101630.28;;;18.10;25.02
74881;BME280;63427;49.654;6.596;2023-02-04T11:56:27;101628.48;;;18.27;24.55
74881;BME280;63427;49.654;6.596;2023-02-04T11:58:55;101628.71;;;18.10;25.27
74881;BME280;63427;49.654;6.596;2023-02-04T12:01:16;101631.53;;;18.14;23.62
74881;BME280;63427;49.654;6.596;2023-02-04T12:03:46;101630.04;;;18.05;22.57
74881;BME280;63427;49.654;6.596;2023-02-04T12:06:06;101635.51;;;18.16;23.48
74881;BME280;63427;49.654;6.596;2023-02-04T12:08:33;101633.65;;;18.03;24.01
74881;BME280;63427;49.654;6.596;2023-02-04T12:11:04;101631.40;;;18.32;23.54
74881;BME280;63427;49.654;6.596;2023-02-04T12:13:23;101632.45;;;18.55;25.65
74881;BME280;63427;49.654;6.596;2023-02-04T12:15:57;101635.63;;;17.40;23.43
74881;BME280;63427;49.654;6.596;2023-02-04T12:18:12;101634.67;;;18.05;24.91
74881;BME280;63427;49.654;6.596;2023-02-04T12:20:38;101635.28;;;18.28;25.88
74881;BME280;63427;49.654;6.596;2023-02-04T12:23:03;101633.48;;;18.24;24.63
74881;BME280;63427;49.654;6.596;2023-02-04T12:25:29;101630.93;;;18.25;23.78
74881;BME280;63427;49.654;6.596;2023-02-04T12:27:54;101630.60;;;18.13;24.08
74881;BME280;63427;49.654;6.596;2023-02-04T12:30:19;101637.80;;;17.98;24.16
74881;BME280;63427;49.654;6.596;2023-02-04T12:32:45;101635.52;;;17.67;24.40
74881;BME280;63427;49.654;6.596;2023-02-04T12:35:10;101634.34;;;18.30;24.77
74881;BME280;63427;49.654;6.596;2023-02-04T12:37:35;101630.87;;;18.05;23.23
74881;BME280;63427;49.654;6.596;2023-02-04T12:40:00;101633.71;;;17.75;25.75
74881;BME280;63427;49.654;6.596;2023-02-04T12:42:26;101636.79;;;18.06;22.85
74881;BME280;63427;49.654;6.596;2023-02-04T12:44:51;101635.95;;;18.10;24.16
74881;BME280;63427;49.654;6.596;2023-02-04T12:47:16;101630.66;;;17.94;22.82